sensor_id;sensor_type;location;lat;lon;timestamp;P1;durP1;ratioP1;P2;durP2;ratioP2
11141;SDS011;5625;50.122;19.864;2022-09-09T00:00:53;8.30;;;7.60;;
11141;SDS011;5625;50.122;19.864;2022-09-09T00:03:27;8.17;;;7.40;;
11141;SDS011;5625;50.122;19.864;2022-09-09T00:06:06;7.93;;;7.20;;
11141;SDS011;5625;50.122;19.864;2022-09-09T00:08:44;7.77;;;7.27;;
11141;SDS011;5625;50.122;19.864;2022-09-09T00:11:24;8.07;;;7.37;;
11141;SDS011;5625;50.122;19.864;2022-09-09T00:13:58;7.50;;;6.90;;
11141;SDS011;5625;50.122;19.864;2022-09-09T00:16:32;7.63;;;6.97;;
11141;SDS011;5625;50.122;19.864;2022-09-09T00:19:05;8.10;;;7.40;;
11141;SDS011;5625;50.122;19.864;2022-09-09T00:21:43;8.10;;;7.30;;
11141;SDS011;5625;50.122;19.864;2022-09-09T00:24:17;8.10;;;7.33;;
11141;SDS011;5625;50.122;19.864;2022-09-09T00:26:53;7.77;;;6.97;;
11141;SDS011;5625;50.122;19.864;2022-09-09T00:29:28;7.47;;;6.97;;
11141;SDS011;5625;50.122;19.864;2022-09-09T00:32:09;7.67;;;6.97;;
11141;SDS011;5625;50.122;19.864;2022-09-09T00:34:41;8.30;;;7.47;;
11141;SDS011;5625;50.122;19.864;2022-09-09T00:37:14;7.77;;;7.07;;
11141;SDS011;5625;50.122;19.864;2022-09-09T00:39:43;8.00;;;7.40;;
11141;SDS011;5625;50.122;19.864;2022-09-09T00:42:14;8.30;;;7.60;;
11141;SDS011;5625;50.122;19.864;2022-09-09T00:44:51;8.13;;;7.47;;
11141;SDS011;5625;50.122;19.864;2022-09-09T00:47:34;7.70;;;6.80;;
11141;SDS011;5625;50.122;19.864;2022-09-09T00:50:12;7.93;;;7.30;;
11141;SDS011;5625;50.122;19.864;2022-09-09T00:53:04;7.43;;;6.23;;
11141;SDS011;5625;50.122;19.864;2022-09-09T00:55:40;7.93;;;7.23;;
11141;SDS011;5625;50.122;19.864;2022-09-09T00:58:14;8.17;;;7.47;;
11141;SDS011;5625;50.122;19.864;2022-09-09T01:00:43;7.93;;;7.23;;
11141;SDS011;5625;50.122;19.864;2022-09-09T01:03:20;8.10;;;7.40;;
11141;SDS011;5625;50.122;19.864;2022-09-09T01:05:56;7.53;;;6.83;;
11141;SDS011;5625;50.122;19.864;2022-09-09T01:08:41;8.00;;;7.20;;
11141;SDS011;5625;50.122;19.864;2022-09-09T01:11:20;8.60;;;7.57;;
11141;SDS011;5625;50.122;19.864;2022-09-09T01:13:53;7.50;;;6.90;;
11141;SDS011;5625;50.122;19.864;2022-09-09T01:16:27;8.13;;;7.33;;
11141;SDS011;5625;50.122;19.864;2022-09-09T01:19:00;8.10;;;7.40;;
11141;SDS011;5625;50.122;19.864;2022-09-09T01:21:32;8.53;;;7.20;;
11141;SDS011;5625;50.122;19.864;2022-09-09T01:24:16;7.87;;;7.23;;
11141;SDS011;5625;50.122;19.864;2022-09-09T01:26:52;9.13;;;8.00;;
11141;SDS011;5625;50.122;19.864;2022-09-09T01:29:24;8.47;;;7.77;;
11141;SDS011;5625;50.122;19.864;2022-09-09T01:31:53;9.20;;;7.47;;
11141;SDS011;5625;50.122;19.864;2022-09-09T01:34:23;8.73;;;7.93;;
11141;SDS011;5625;50.122;19.864;2022-09-09T01:36:56;8.63;;;7.93;;
11141;SDS011;5625;50.122;19.864;2022-09-09T01:39:28;8.60;;;7.50;;
11141;SDS011;5625;50.122;19.864;2022-09-09T01:41:57;9.40;;;8.60;;
11141;SDS011;5625;50.122;19.864;2022-09-09T01:44:26;8.70;;;7.90;;
11141;SDS011;5625;50.122;19.864;2022-09-09T01:46:55;9.13;;;8.23;;
11141;SDS011;5625;50.122;19.864;2022-09-09T01:49:23;9.57;;;8.77;;
11141;SDS011;5625;50.122;19.864;2022-09-09T01:51:52;9.50;;;8.70;;
11141;SDS011;5625;50.122;19.864;2022-09-09T01:54:23;9.67;;;8.27;;
11141;SDS011;5625;50.122;19.864;2022-09-09T01:56:55;10.37;;;8.87;;
11141;SDS011;5625;50.122;19.864;2022-09-09T01:59:37;9.10;;;8.30;;
11141;SDS011;5625;50.122;19.864;2022-09-09T02:02:13;9.33;;;8.43;;
11141;SDS011;5625;50.122;19.864;2022-09-09T02:04:45;9.13;;;8.33;;
11141;SDS011;5625;50.122;19.864;2022-09-09T02:07:20;8.57;;;7.77;;
11141;SDS011;5625;50.122;19.864;2022-09-09T02:10:02;8.40;;;7.70;;
11141;SDS011;5625;50.122;19.864;2022-09-09T02:12:37;9.27;;;8.43;;
11141;SDS011;5625;50.122;19.864;2022-09-09T02:15:11;9.60;;;8.67;;
11141;SDS011;5625;50.122;19.864;2022-09-09T02:17:47;8.20;;;7.50;;
11141;SDS011;5625;50.122;19.864;2022-09-09T02:20:18;8.63;;;7.93;;
11141;SDS011;5625;50.122;19.864;2022-09-09T02:22:49;8.73;;;8.03;;
11141;SDS011;5625;50.122;19.864;2022-09-09T02:25:19;8.20;;;7.40;;
11141;SDS011;5625;50.122;19.864;2022-09-09T02:27:51;8.73;;;7.73;;
11141;SDS011;5625;50.122;19.864;2022-09-09T02:30:19;8.27;;;7.57;;
11141;SDS011;5625;50.122;19.864;2022-09-09T02:32:48;8.00;;;7.37;;
11141;SDS011;5625;50.122;19.864;2022-09-09T02:35:19;9.10;;;8.30;;
11141;SDS011;5625;50.122;19.864;2022-09-09T02:37:51;8.83;;;8.13;;
11141;SDS011;5625;50.122;19.864;2022-09-09T02:40:22;9.50;;;8.70;;
11141;SDS011;5625;50.122;19.864;2022-09-09T02:42:51;8.70;;;7.90;;
11141;SDS011;5625;50.122;19.864;2022-09-09T02:45:24;8.87;;;8.07;;
11141;SDS011;5625;50.122;19.864;2022-09-09T02:47:56;9.37;;;8.57;;
11141;SDS011;5625;50.122;19.864;2022-09-09T02:50:36;9.37;;;8.13;;
11141;SDS011;5625;50.122;19.864;2022-09-09T02:53:11;8.73;;;8.07;;
11141;SDS011;5625;50.122;19.864;2022-09-09T02:55:45;9.40;;;8.60;;
11141;SDS011;5625;50.122;19.864;2022-09-09T02:58:17;10.30;;;9.50;;
11141;SDS011;5625;50.122;19.864;2022-09-09T03:00:47;8.50;;;7.80;;
11141;SDS011;5625;50.122;19.864;2022-09-09T03:03:16;9.70;;;8.90;;
11141;SDS011;5625;50.122;19.864;2022-09-09T03:05:45;10.87;;;9.87;;
11141;SDS011;5625;50.122;19.864;2022-09-09T03:08:14;10.10;;;9.30;;
11141;SDS011;5625;50.122;19.864;2022-09-09T03:10:43;10.73;;;9.73;;
11141;SDS011;5625;50.122;19.864;2022-09-09T03:13:11;9.83;;;8.93;;
11141;SDS011;5625;50.122;19.864;2022-09-09T03:15:42;10.57;;;9.57;;
11141;SDS011;5625;50.122;19.864;2022-09-09T03:18:11;10.40;;;9.50;;
11141;SDS011;5625;50.122;19.864;2022-09-09T03:20:39;10.47;;;9.47;;
11141;SDS011;5625;50.122;19.864;2022-09-09T03:23:08;9.73;;;8.93;;
11141;SDS011;5625;50.122;19.864;2022-09-09T03:25:45;10.87;;;9.87;;
11141;SDS011;5625;50.122;19.864;2022-09-09T03:28:15;10.67;;;9.87;;
11141;SDS011;5625;50.122;19.864;2022-09-09T03:30:44;10.20;;;9.37;;
11141;SDS011;5625;50.122;19.864;2022-09-09T03:33:12;10.27;;;9.30;;
11141;SDS011;5625;50.122;19.864;2022-09-09T03:35:44;10.43;;;9.43;;
11141;SDS011;5625;50.122;19.864;2022-09-09T03:38:14;10.70;;;9.73;;
11141;SDS011;5625;50.122;19.864;2022-09-09T03:40:48;11.50;;;10.30;;
11141;SDS011;5625;50.122;19.864;2022-09-09T03:43:17;10.83;;;9.90;;
11141;SDS011;5625;50.122;19.864;2022-09-09T03:45:47;10.70;;;9.80;;
11141;SDS011;5625;50.122;19.864;2022-09-09T03:48:16;11.80;;;10.27;;
11141;SDS011;5625;50.122;19.864;2022-09-09T03:50:45;10.47;;;9.47;;
11141;SDS011;5625;50.122;19.864;2022-09-09T03:53:13;10.87;;;9.93;;
11141;SDS011;5625;50.122;19.864;2022-09-09T03:55:43;10.27;;;9.47;;
11141;SDS011;5625;50.122;19.864;2022-09-09T03:58:12;10.00;;;9.13;;
11141;SDS011;5625;50.122;19.864;2022-09-09T04:00:40;8.70;;;8.00;;
11141;SDS011;5625;50.122;19.864;2022-09-09T04:03:12;9.67;;;8.17;;
11141;SDS011;5625;50.122;19.864;2022-09-09T04:05:41;8.87;;;8.17;;
11141;SDS011;5625;50.122;19.864;2022-09-09T04:08:09;9.50;;;8.53;;
11141;SDS011;5625;50.122;19.864;2022-09-09T04:10:37;8.23;;;7.53;;
11141;SDS011;5625;50.122;19.864;2022-09-09T04:13:05;8.77;;;8.07;;
11141;SDS011;5625;50.122;19.864;2022-09-09T04:15:33;9.13;;;8.27;;
11141;SDS011;5625;50.122;19.864;2022-09-09T04:18:02;9.63;;;8.80;;
11141;SDS011;5625;50.122;19.864;2022-09-09T04:20:33;9.03;;;8.23;;
11141;SDS011;5625;50.122;19.864;2022-09-09T04:23:02;8.30;;;7.70;;
11141;SDS011;5625;50.122;19.864;2022-09-09T04:25:30;8.70;;;8.03;;
11141;SDS011;5625;50.122;19.864;2022-09-09T04:27:59;9.53;;;8.73;;
11141;SDS011;5625;50.122;19.864;2022-09-09T04:30:28;11.50;;;10.50;;
11141;SDS011;5625;50.122;19.864;2022-09-09T04:32:56;11.37;;;10.37;;
11141;SDS011;5625;50.122;19.864;2022-09-09T04:35:25;11.57;;;10.53;;
11141;SDS011;5625;50.122;19.864;2022-09-09T04:37:54;12.60;;;11.47;;
11141;SDS011;5625;50.122;19.864;2022-09-09T04:40:22;12.23;;;11.20;;
11141;SDS011;5625;50.122;19.864;2022-09-09T04:42:51;12.57;;;11.47;;
11141;SDS011;5625;50.122;19.864;2022-09-09T04:45:19;11.60;;;10.60;;
11141;SDS011;5625;50.122;19.864;2022-09-09T04:47:47;11.27;;;10.27;;
11141;SDS011;5625;50.122;19.864;2022-09-09T04:50:15;11.30;;;10.07;;
11141;SDS011;5625;50.122;19.864;2022-09-09T04:52:49;11.43;;;10.47;;
11141;SDS011;5625;50.122;19.864;2022-09-09T04:55:19;11.03;;;10.03;;
11141;SDS011;5625;50.122;19.864;2022-09-09T04:57:47;10.37;;;9.50;;
11141;SDS011;5625;50.122;19.864;2022-09-09T05:00:16;10.10;;;9.30;;
11141;SDS011;5625;50.122;19.864;2022-09-09T05:02:45;8.40;;;7.70;;
11141;SDS011;5625;50.122;19.864;2022-09-09T05:05:13;8.67;;;7.97;;
11141;SDS011;5625;50.122;19.864;2022-09-09T05:07:42;8.90;;;8.20;;
11141;SDS011;5625;50.122;19.864;2022-09-09T05:10:10;8.47;;;7.77;;
11141;SDS011;5625;50.122;19.864;2022-09-09T05:12:41;8.80;;;7.90;;
11141;SDS011;5625;50.122;19.864;2022-09-09T05:15:09;9.00;;;8.20;;
11141;SDS011;5625;50.122;19.864;2022-09-09T05:17:38;9.30;;;8.50;;
11141;SDS011;5625;50.122;19.864;2022-09-09T05:20:06;10.97;;;9.57;;
11141;SDS011;5625;50.122;19.864;2022-09-09T05:22:40;10.70;;;8.83;;
11141;SDS011;5625;50.122;19.864;2022-09-09T05:25:08;9.00;;;8.17;;
11141;SDS011;5625;50.122;19.864;2022-09-09T05:27:36;10.10;;;9.10;;
11141;SDS011;5625;50.122;19.864;2022-09-09T05:30:07;9.13;;;8.33;;
11141;SDS011;5625;50.122;19.864;2022-09-09T05:32:36;9.20;;;8.47;;
11141;SDS011;5625;50.122;19.864;2022-09-09T05:35:04;10.63;;;9.60;;
11141;SDS011;5625;50.122;19.864;2022-09-09T05:37:32;10.37;;;9.37;;
11141;SDS011;5625;50.122;19.864;2022-09-09T05:40:01;11.37;;;10.37;;
11141;SDS011;5625;50.122;19.864;2022-09-09T05:42:30;12.00;;;10.90;;
11141;SDS011;5625;50.122;19.864;2022-09-09T05:44:58;11.17;;;10.07;;
11141;SDS011;5625;50.122;19.864;2022-09-09T05:47:28;11.17;;;10.03;;
11141;SDS011;5625;50.122;19.864;2022-09-09T05:49:56;10.87;;;9.87;;
11141;SDS011;5625;50.122;19.864;2022-09-09T05:52:24;12.53;;;11.23;;
11141;SDS011;5625;50.122;19.864;2022-09-09T05:54:53;12.13;;;11.03;;
11141;SDS011;5625;50.122;19.864;2022-09-09T05:57:23;11.40;;;10.30;;
11141;SDS011;5625;50.122;19.864;2022-09-09T05:59:51;10.60;;;9.50;;
11141;SDS011;5625;50.122;19.864;2022-09-09T06:02:19;11.53;;;10.33;;
11141;SDS011;5625;50.122;19.864;2022-09-09T06:04:49;12.47;;;11.20;;
11141;SDS011;5625;50.122;19.864;2022-09-09T06:07:17;12.10;;;11.03;;
11141;SDS011;5625;50.122;19.864;2022-09-09T06:09:46;11.60;;;10.57;;
11141;SDS011;5625;50.122;19.864;2022-09-09T06:12:14;15.03;;;13.73;;
11141;SDS011;5625;50.122;19.864;2022-09-09T06:14:42;14.63;;;13.17;;
11141;SDS011;5625;50.122;19.864;2022-09-09T06:17:11;14.40;;;13.17;;
11141;SDS011;5625;50.122;19.864;2022-09-09T06:19:39;13.03;;;11.83;;
11141;SDS011;5625;50.122;19.864;2022-09-09T06:22:09;15.20;;;13.80;;
11141;SDS011;5625;50.122;19.864;2022-09-09T06:24:38;14.00;;;12.70;;
11141;SDS011;5625;50.122;19.864;2022-09-09T06:27:06;12.23;;;11.13;;
11141;SDS011;5625;50.122;19.864;2022-09-09T06:29:34;12.77;;;11.63;;
11141;SDS011;5625;50.122;19.864;2022-09-09T06:32:02;13.20;;;11.87;;
11141;SDS011;5625;50.122;19.864;2022-09-09T06:34:30;12.93;;;11.73;;
11141;SDS011;5625;50.122;19.864;2022-09-09T06:36:58;12.17;;;11.07;;
11141;SDS011;5625;50.122;19.864;2022-09-09T06:39:28;11.33;;;9.57;;
11141;SDS011;5625;50.122;19.864;2022-09-09T06:41:56;11.53;;;9.70;;
11141;SDS011;5625;50.122;19.864;2022-09-09T06:44:24;11.60;;;9.90;;
11141;SDS011;5625;50.122;19.864;2022-09-09T06:46:57;11.10;;;9.10;;
11141;SDS011;5625;50.122;19.864;2022-09-09T06:49:25;10.20;;;9.30;;
11141;SDS011;5625;50.122;19.864;2022-09-09T06:51:53;9.10;;;8.13;;
11141;SDS011;5625;50.122;19.864;2022-09-09T06:54:21;9.30;;;8.40;;
11141;SDS011;5625;50.122;19.864;2022-09-09T06:56:51;10.30;;;8.13;;
11141;SDS011;5625;50.122;19.864;2022-09-09T06:59:19;8.37;;;7.57;;
11141;SDS011;5625;50.122;19.864;2022-09-09T07:01:47;8.57;;;7.87;;
11141;SDS011;5625;50.122;19.864;2022-09-09T07:04:21;8.90;;;8.10;;
11141;SDS011;5625;50.122;19.864;2022-09-09T07:06:49;8.03;;;7.23;;
11141;SDS011;5625;50.122;19.864;2022-09-09T07:09:18;8.67;;;6.80;;
11141;SDS011;5625;50.122;19.864;2022-09-09T07:11:48;9.07;;;6.90;;
11141;SDS011;5625;50.122;19.864;2022-09-09T07:14:19;7.53;;;6.73;;
11141;SDS011;5625;50.122;19.864;2022-09-09T07:16:48;8.40;;;6.90;;
11141;SDS011;5625;50.122;19.864;2022-09-09T07:19:16;7.77;;;7.07;;
11141;SDS011;5625;50.122;19.864;2022-09-09T07:21:44;8.17;;;6.00;;
11141;SDS011;5625;50.122;19.864;2022-09-09T07:24:12;6.80;;;6.27;;
11141;SDS011;5625;50.122;19.864;2022-09-09T07:26:40;7.20;;;6.50;;
11141;SDS011;5625;50.122;19.864;2022-09-09T07:29:09;7.27;;;5.00;;
11141;SDS011;5625;50.122;19.864;2022-09-09T07:31:45;6.73;;;6.13;;
11141;SDS011;5625;50.122;19.864;2022-09-09T07:34:14;7.87;;;4.93;;
11141;SDS011;5625;50.122;19.864;2022-09-09T07:36:42;5.77;;;5.27;;
11141;SDS011;5625;50.122;19.864;2022-09-09T07:39:12;5.07;;;4.57;;
11141;SDS011;5625;50.122;19.864;2022-09-09T07:41:44;4.53;;;4.00;;
11141;SDS011;5625;50.122;19.864;2022-09-09T07:44:15;4.83;;;4.43;;
11141;SDS011;5625;50.122;19.864;2022-09-09T07:46:44;5.00;;;4.60;;
11141;SDS011;5625;50.122;19.864;2022-09-09T07:49:12;4.40;;;3.97;;
11141;SDS011;5625;50.122;19.864;2022-09-09T07:51:41;4.82;;;3.40;;
11141;SDS011;5625;50.122;19.864;2022-09-09T07:54:12;6.35;;;3.92;;
11141;SDS011;5625;50.122;19.864;2022-09-09T07:56:42;3.75;;;3.00;;
11141;SDS011;5625;50.122;19.864;2022-09-09T07:59:10;3.78;;;3.08;;
11141;SDS011;5625;50.122;19.864;2022-09-09T08:01:40;4.00;;;3.25;;
11141;SDS011;5625;50.122;19.864;2022-09-09T08:04:11;4.18;;;2.95;;
11141;SDS011;5625;50.122;19.864;2022-09-09T08:06:42;4.88;;;3.60;;
11141;SDS011;5625;50.122;19.864;2022-09-09T08:09:12;4.85;;;2.90;;
11141;SDS011;5625;50.122;19.864;2022-09-09T08:11:41;3.45;;;2.30;;
11141;SDS011;5625;50.122;19.864;2022-09-09T08:14:10;2.60;;;2.40;;
11141;SDS011;5625;50.122;19.864;2022-09-09T08:16:41;3.35;;;2.22;;
11141;SDS011;5625;50.122;19.864;2022-09-09T08:19:10;2.60;;;2.40;;
11141;SDS011;5625;50.122;19.864;2022-09-09T08:21:40;3.22;;;2.05;;
11141;SDS011;5625;50.122;19.864;2022-09-09T08:24:09;3.50;;;2.30;;
11141;SDS011;5625;50.122;19.864;2022-09-09T08:26:39;3.83;;;2.20;;
11141;SDS011;5625;50.122;19.864;2022-09-09T08:29:09;3.03;;;1.85;;
11141;SDS011;5625;50.122;19.864;2022-09-09T08:34:12;2.10;;;1.65;;
11141;SDS011;5625;50.122;19.864;2022-09-09T08:36:42;2.67;;;1.65;;
11141;SDS011;5625;50.122;19.864;2022-09-09T08:39:11;4.00;;;1.70;;
11141;SDS011;5625;50.122;19.864;2022-09-09T08:44:45;1.98;;;1.75;;
11141;SDS011;5625;50.122;19.864;2022-09-09T08:47:23;3.17;;;1.70;;
11141;SDS011;5625;50.122;19.864;2022-09-09T08:50:02;1.67;;;1.45;;
11141;SDS011;5625;50.122;19.864;2022-09-09T08:52:41;1.60;;;1.50;;
11141;SDS011;5625;50.122;19.864;2022-09-09T08:55:20;1.85;;;1.40;;
11141;SDS011;5625;50.122;19.864;2022-09-09T08:57:53;2.25;;;1.80;;
11141;SDS011;5625;50.122;19.864;2022-09-09T09:00:25;2.38;;;1.33;;
11141;SDS011;5625;50.122;19.864;2022-09-09T09:03:05;3.28;;;1.48;;
11141;SDS011;5625;50.122;19.864;2022-09-09T09:05:43;2.60;;;1.50;;
11141;SDS011;5625;50.122;19.864;2022-09-09T09:08:17;4.20;;;1.63;;
11141;SDS011;5625;50.122;19.864;2022-09-09T09:10:53;2.95;;;1.33;;
11141;SDS011;5625;50.122;19.864;2022-09-09T09:13:25;2.20;;;1.50;;
11141;SDS011;5625;50.122;19.864;2022-09-09T09:16:10;2.83;;;1.67;;
11141;SDS011;5625;50.122;19.864;2022-09-09T09:18:48;4.22;;;1.40;;
11141;SDS011;5625;50.122;19.864;2022-09-09T09:21:18;2.70;;;1.40;;
11141;SDS011;5625;50.122;19.864;2022-09-09T09:23:53;1.98;;;1.45;;
11141;SDS011;5625;50.122;19.864;2022-09-09T09:26:28;1.52;;;1.33;;
11141;SDS011;5625;50.122;19.864;2022-09-09T09:28:59;1.88;;;1.33;;
11141;SDS011;5625;50.122;19.864;2022-09-09T09:31:35;1.55;;;1.40;;
11141;SDS011;5625;50.122;19.864;2022-09-09T09:34:07;3.38;;;1.73;;
11141;SDS011;5625;50.122;19.864;2022-09-09T09:36:39;1.45;;;1.35;;
11141;SDS011;5625;50.122;19.864;2022-09-09T09:39:10;1.73;;;1.48;;
11141;SDS011;5625;50.122;19.864;2022-09-09T09:42:09;3.08;;;1.30;;
11141;SDS011;5625;50.122;19.864;2022-09-09T09:44:46;1.02;;;0.90;;
11141;SDS011;5625;50.122;19.864;2022-09-09T09:47:15;1.60;;;1.10;;
11141;SDS011;5625;50.122;19.864;2022-09-09T09:49:52;1.27;;;0.98;;
11141;SDS011;5625;50.122;19.864;2022-09-09T09:52:24;1.42;;;1.00;;
11141;SDS011;5625;50.122;19.864;2022-09-09T09:54:54;1.38;;;0.90;;
11141;SDS011;5625;50.122;19.864;2022-09-09T09:57:30;1.80;;;1.17;;
11141;SDS011;5625;50.122;19.864;2022-09-09T10:00:12;1.08;;;0.93;;
11141;SDS011;5625;50.122;19.864;2022-09-09T10:02:43;1.05;;;0.82;;
11141;SDS011;5625;50.122;19.864;2022-09-09T10:05:15;1.15;;;0.85;;
11141;SDS011;5625;50.122;19.864;2022-09-09T10:08:02;0.80;;;0.80;;
11141;SDS011;5625;50.122;19.864;2022-09-09T10:10:42;1.10;;;0.90;;
11141;SDS011;5625;50.122;19.864;2022-09-09T10:13:29;1.73;;;1.10;;
11141;SDS011;5625;50.122;19.864;2022-09-09T10:16:06;2.40;;;1.10;;
11141;SDS011;5625;50.122;19.864;2022-09-09T10:18:46;1.42;;;1.00;;
11141;SDS011;5625;50.122;19.864;2022-09-09T10:21:30;2.65;;;1.00;;
11141;SDS011;5625;50.122;19.864;2022-09-09T10:24:29;1.80;;;1.17;;
11141;SDS011;5625;50.122;19.864;2022-09-09T10:27:19;3.80;;;1.00;;
11141;SDS011;5625;50.122;19.864;2022-09-09T10:29:57;0.80;;;0.80;;
11141;SDS011;5625;50.122;19.864;2022-09-09T10:32:40;1.38;;;0.70;;
11141;SDS011;5625;50.122;19.864;2022-09-09T10:35:14;2.17;;;0.70;;
11141;SDS011;5625;50.122;19.864;2022-09-09T10:38:11;0.77;;;0.77;;
11141;SDS011;5625;50.122;19.864;2022-09-09T10:40:48;0.95;;;0.80;;
11141;SDS011;5625;50.122;19.864;2022-09-09T10:44:00;0.70;;;0.70;;
11141;SDS011;5625;50.122;19.864;2022-09-09T10:46:43;0.80;;;0.80;;
11141;SDS011;5625;50.122;19.864;2022-09-09T10:49:31;1.40;;;0.60;;
11141;SDS011;5625;50.122;19.864;2022-09-09T10:52:18;1.85;;;0.70;;
11141;SDS011;5625;50.122;19.864;2022-09-09T10:54:54;1.23;;;0.80;;
11141;SDS011;5625;50.122;19.864;2022-09-09T10:57:28;1.00;;;0.63;;
11141;SDS011;5625;50.122;19.864;2022-09-09T11:00:03;0.75;;;0.70;;
11141;SDS011;5625;50.122;19.864;2022-09-09T11:02:34;0.60;;;0.60;;
11141;SDS011;5625;50.122;19.864;2022-09-09T11:05:04;0.60;;;0.60;;
11141;SDS011;5625;50.122;19.864;2022-09-09T11:07:37;1.08;;;0.70;;
11141;SDS011;5625;50.122;19.864;2022-09-09T11:10:16;0.63;;;0.60;;
11141;SDS011;5625;50.122;19.864;2022-09-09T11:12:52;0.90;;;0.70;;
11141;SDS011;5625;50.122;19.864;2022-09-09T11:15:26;0.60;;;0.60;;
11141;SDS011;5625;50.122;19.864;2022-09-09T11:17:58;1.33;;;0.90;;
11141;SDS011;5625;50.122;19.864;2022-09-09T11:20:32;0.93;;;0.63;;
11141;SDS011;5625;50.122;19.864;2022-09-09T11:23:01;1.77;;;0.70;;
11141;SDS011;5625;50.122;19.864;2022-09-09T11:25:34;0.80;;;0.80;;
11141;SDS011;5625;50.122;19.864;2022-09-09T11:28:19;2.78;;;0.77;;
11141;SDS011;5625;50.122;19.864;2022-09-09T11:31:03;0.77;;;0.50;;
11141;SDS011;5625;50.122;19.864;2022-09-09T11:34:02;0.88;;;0.80;;
11141;SDS011;5625;50.122;19.864;2022-09-09T11:36:49;1.65;;;0.75;;
11141;SDS011;5625;50.122;19.864;2022-09-09T11:39:36;3.17;;;0.90;;
11141;SDS011;5625;50.122;19.864;2022-09-09T11:42:19;0.70;;;0.70;;
11141;SDS011;5625;50.122;19.864;2022-09-09T11:44:49;1.55;;;0.50;;
11141;SDS011;5625;50.122;19.864;2022-09-09T11:47:21;0.82;;;0.70;;
11141;SDS011;5625;50.122;19.864;2022-09-09T11:49:55;1.08;;;0.60;;
11141;SDS011;5625;50.122;19.864;2022-09-09T11:52:36;0.73;;;0.70;;
11141;SDS011;5625;50.122;19.864;2022-09-09T11:55:08;0.73;;;0.52;;
11141;SDS011;5625;50.122;19.864;2022-09-09T11:57:39;0.50;;;0.50;;
11141;SDS011;5625;50.122;19.864;2022-09-09T12:00:27;0.65;;;0.65;;
11141;SDS011;5625;50.122;19.864;2022-09-09T12:03:00;1.02;;;0.70;;
11141;SDS011;5625;50.122;19.864;2022-09-09T12:05:35;1.75;;;0.93;;
11141;SDS011;5625;50.122;19.864;2022-09-09T12:08:06;1.33;;;0.70;;
11141;SDS011;5625;50.122;19.864;2022-09-09T12:10:38;0.60;;;0.55;;
11141;SDS011;5625;50.122;19.864;2022-09-09T12:13:09;1.00;;;0.50;;
11141;SDS011;5625;50.122;19.864;2022-09-09T12:15:49;1.17;;;0.50;;
11141;SDS011;5625;50.122;19.864;2022-09-09T12:18:21;2.08;;;0.70;;
11141;SDS011;5625;50.122;19.864;2022-09-09T12:20:53;1.27;;;0.63;;
11141;SDS011;5625;50.122;19.864;2022-09-09T12:23:31;0.93;;;0.88;;
11141;SDS011;5625;50.122;19.864;2022-09-09T12:26:08;1.40;;;0.65;;
11141;SDS011;5625;50.122;19.864;2022-09-09T12:28:54;0.70;;;0.60;;
11141;SDS011;5625;50.122;19.864;2022-09-09T12:31:31;1.05;;;0.60;;
11141;SDS011;5625;50.122;19.864;2022-09-09T12:34:11;0.50;;;0.50;;
11141;SDS011;5625;50.122;19.864;2022-09-09T12:36:42;1.67;;;0.50;;
11141;SDS011;5625;50.122;19.864;2022-09-09T12:39:19;2.03;;;0.60;;
11141;SDS011;5625;50.122;19.864;2022-09-09T12:41:54;1.33;;;0.60;;
11141;SDS011;5625;50.122;19.864;2022-09-09T12:44:25;0.88;;;0.70;;
11141;SDS011;5625;50.122;19.864;2022-09-09T12:46:55;0.80;;;0.40;;
11141;SDS011;5625;50.122;19.864;2022-09-09T12:49:28;0.73;;;0.60;;
11141;SDS011;5625;50.122;19.864;2022-09-09T12:52:01;1.58;;;0.70;;
11141;SDS011;5625;50.122;19.864;2022-09-09T12:54:32;0.90;;;0.80;;
11141;SDS011;5625;50.122;19.864;2022-09-09T12:57:02;2.88;;;0.60;;
11141;SDS011;5625;50.122;19.864;2022-09-09T12:59:36;0.60;;;0.60;;
11141;SDS011;5625;50.122;19.864;2022-09-09T13:02:10;1.15;;;0.50;;
11141;SDS011;5625;50.122;19.864;2022-09-09T13:04:47;2.20;;;0.60;;
11141;SDS011;5625;50.122;19.864;2022-09-09T13:07:17;0.63;;;0.50;;
11141;SDS011;5625;50.122;19.864;2022-09-09T13:09:48;0.60;;;0.60;;
11141;SDS011;5625;50.122;19.864;2022-09-09T13:12:18;3.45;;;0.90;;
11141;SDS011;5625;50.122;19.864;2022-09-09T13:14:53;1.83;;;0.77;;
11141;SDS011;5625;50.122;19.864;2022-09-09T13:17:24;1.25;;;0.70;;
11141;SDS011;5625;50.122;19.864;2022-09-09T13:19:55;1.10;;;0.70;;
11141;SDS011;5625;50.122;19.864;2022-09-09T13:22:29;1.10;;;0.77;;
11141;SDS011;5625;50.122;19.864;2022-09-09T13:25:00;0.70;;;0.70;;
11141;SDS011;5625;50.122;19.864;2022-09-09T13:27:31;1.70;;;1.20;;
11141;SDS011;5625;50.122;19.864;2022-09-09T13:32:59;0.70;;;0.70;;
11141;SDS011;5625;50.122;19.864;2022-09-09T13:35:32;1.38;;;0.82;;
11141;SDS011;5625;50.122;19.864;2022-09-09T13:38:06;1.92;;;0.70;;
11141;SDS011;5625;50.122;19.864;2022-09-09T13:40:37;0.85;;;0.57;;
11141;SDS011;5625;50.122;19.864;2022-09-09T13:43:05;0.73;;;0.70;;
11141;SDS011;5625;50.122;19.864;2022-09-09T13:45:53;0.60;;;0.60;;
11141;SDS011;5625;50.122;19.864;2022-09-09T13:48:22;0.60;;;0.60;;
11141;SDS011;5625;50.122;19.864;2022-09-09T13:50:54;3.10;;;0.68;;
11141;SDS011;5625;50.122;19.864;2022-09-09T13:53:24;8.38;;;5.20;;
11141;SDS011;5625;50.122;19.864;2022-09-09T13:55:52;5.20;;;3.50;;
11141;SDS011;5625;50.122;19.864;2022-09-09T13:58:21;6.65;;;3.55;;
11141;SDS011;5625;50.122;19.864;2022-09-09T14:00:51;3.10;;;2.60;;
11141;SDS011;5625;50.122;19.864;2022-09-09T14:03:21;1.60;;;1.38;;
11141;SDS011;5625;50.122;19.864;2022-09-09T14:05:49;0.90;;;0.90;;
11141;SDS011;5625;50.122;19.864;2022-09-09T14:08:21;1.58;;;0.85;;
11141;SDS011;5625;50.122;19.864;2022-09-09T14:10:52;1.42;;;1.10;;
11141;SDS011;5625;50.122;19.864;2022-09-09T14:13:25;1.52;;;1.00;;
11141;SDS011;5625;50.122;19.864;2022-09-09T14:15:55;2.22;;;0.95;;
11141;SDS011;5625;50.122;19.864;2022-09-09T14:18:23;2.28;;;0.70;;
11141;SDS011;5625;50.122;19.864;2022-09-09T14:20:51;0.80;;;0.80;;
11141;SDS011;5625;50.122;19.864;2022-09-09T14:23:20;1.10;;;0.85;;
11141;SDS011;5625;50.122;19.864;2022-09-09T14:25:48;1.73;;;0.80;;
11141;SDS011;5625;50.122;19.864;2022-09-09T14:28:18;1.48;;;0.98;;
11141;SDS011;5625;50.122;19.864;2022-09-09T14:31:07;1.55;;;0.90;;
11141;SDS011;5625;50.122;19.864;2022-09-09T14:33:36;0.95;;;0.80;;
11141;SDS011;5625;50.122;19.864;2022-09-09T14:36:05;1.17;;;0.88;;
11141;SDS011;5625;50.122;19.864;2022-09-09T14:38:34;0.98;;;0.70;;
11141;SDS011;5625;50.122;19.864;2022-09-09T14:41:05;1.23;;;1.00;;
11141;SDS011;5625;50.122;19.864;2022-09-09T14:43:34;2.28;;;0.98;;
11141;SDS011;5625;50.122;19.864;2022-09-09T14:46:04;1.50;;;1.10;;
11141;SDS011;5625;50.122;19.864;2022-09-09T14:48:34;1.73;;;1.10;;
11141;SDS011;5625;50.122;19.864;2022-09-09T14:51:06;2.33;;;1.10;;
11141;SDS011;5625;50.122;19.864;2022-09-09T14:53:35;1.63;;;1.10;;
11141;SDS011;5625;50.122;19.864;2022-09-09T14:56:07;1.27;;;1.17;;
11141;SDS011;5625;50.122;19.864;2022-09-09T14:58:37;2.10;;;1.23;;
11141;SDS011;5625;50.122;19.864;2022-09-09T15:01:05;1.52;;;1.42;;
11141;SDS011;5625;50.122;19.864;2022-09-09T15:03:37;3.15;;;1.00;;
11141;SDS011;5625;50.122;19.864;2022-09-09T15:06:06;3.15;;;1.05;;
11141;SDS011;5625;50.122;19.864;2022-09-09T15:08:36;3.45;;;1.00;;
11141;SDS011;5625;50.122;19.864;2022-09-09T15:11:08;1.85;;;0.90;;
11141;SDS011;5625;50.122;19.864;2022-09-09T15:13:38;1.13;;;0.80;;
11141;SDS011;5625;50.122;19.864;2022-09-09T15:16:09;2.65;;;1.10;;
11141;SDS011;5625;50.122;19.864;2022-09-09T15:18:40;1.67;;;0.80;;
11141;SDS011;5625;50.122;19.864;2022-09-09T15:21:09;3.00;;;0.70;;
11141;SDS011;5625;50.122;19.864;2022-09-09T15:23:37;0.70;;;0.70;;